createdAt,value
2022-10-19T00:00:34.303Z,85.11
2022-10-19T00:03:26.219Z,84.06
2022-10-19T00:05:58.431Z,83.49
2022-10-19T00:08:30.461Z,83.39
2022-10-19T00:11:03.582Z,82.88
2022-10-19T00:13:35.986Z,82.52
2022-10-19T00:16:13.475Z,83.13
2022-10-19T00:18:46.692Z,82.76
2022-10-19T00:21:20.942Z,82.30
2022-10-19T00:23:53.543Z,82.21
2022-10-19T00:26:25.881Z,81.95
2022-10-19T00:28:59.121Z,82.21
2022-10-19T00:31:31.029Z,82.18
2022-10-19T00:34:03.116Z,81.84
2022-10-19T00:36:37.902Z,82.15
2022-10-19T00:39:09.213Z,82.06
2022-10-19T00:41:41.737Z,81.74
2022-10-19T00:44:44.221Z,81.88
2022-10-19T00:47:16.541Z,81.96
2022-10-19T00:49:49.498Z,81.67
2022-10-19T00:52:25.140Z,81.36
2022-10-19T00:54:59.030Z,81.24
2022-10-19T00:57:32.650Z,81.98
2022-10-19T01:00:09.071Z,81.81
2022-10-19T01:02:43.959Z,81.42
2022-10-19T01:05:16.717Z,81.40
2022-10-19T01:07:50.146Z,81.25
2022-10-19T01:10:25.991Z,81.85
2022-10-19T01:13:22.425Z,82.31
2022-10-19T01:16:04.974Z,81.91
2022-10-19T01:18:46.099Z,81.36
2022-10-19T01:21:27.445Z,81.82
2022-10-19T01:24:37.120Z,82.35
2022-10-19T01:27:44.037Z,81.86
2022-10-19T01:30:22.943Z,81.30
2022-10-19T01:33:10.511Z,80.93
2022-10-19T01:35:52.027Z,80.44
2022-10-19T01:38:34.576Z,80.71
2022-10-19T01:41:16.716Z,80.50
2022-10-19T01:43:56.508Z,80.40
2022-10-19T01:46:33.656Z,80.33
2022-10-19T01:49:13.591Z,80.57
2022-10-19T01:51:51.234Z,80.41
2022-10-19T01:54:26.193Z,81.04
2022-10-19T01:56:58.211Z,81.62
2022-10-19T01:59:31.432Z,81.13
2022-10-19T02:02:06.963Z,80.14
2022-10-19T02:04:41.531Z,79.81
2022-10-19T02:07:14.366Z,79.95
2022-10-19T02:09:46.345Z,79.47
2022-10-19T02:12:21.906Z,79.71
2022-10-19T02:14:59.019Z,80.00
2022-10-19T02:17:35.839Z,80.04
2022-10-19T02:20:09.450Z,79.33
2022-10-19T02:22:41.735Z,79.20
2022-10-19T02:25:14.913Z,79.67
2022-10-19T02:27:47.731Z,79.32
2022-10-19T02:30:21.849Z,80.00
2022-10-19T02:32:53.964Z,79.91
2022-10-19T02:35:26.014Z,79.66
2022-10-19T02:38:02.951Z,78.88
2022-10-19T02:40:38.680Z,78.91
2022-10-19T02:43:15.269Z,79.06
2022-10-19T02:45:53.990Z,79.27
2022-10-19T02:48:30.035Z,79.34
2022-10-19T02:51:02.871Z,79.63
2022-10-19T02:53:35.085Z,79.33
2022-10-19T02:56:09.449Z,79.44
2022-10-19T02:58:41.603Z,79.62
2022-10-19T03:01:16.318Z,80.08
2022-10-19T03:03:48.606Z,79.21
2022-10-19T03:06:20.770Z,79.27
2022-10-19T03:08:54.217Z,78.86
2022-10-19T03:11:27.148Z,79.09
2022-10-19T03:14:06.937Z,79.41
2022-10-19T03:16:44.443Z,78.49
2022-10-19T03:19:18.903Z,78.81
2022-10-19T03:21:51.207Z,79.45
2022-10-19T03:24:23.098Z,79.70
2022-10-19T03:26:55.416Z,79.53
2022-10-19T03:29:27.614Z,79.00
2022-10-19T03:31:59.743Z,78.36
2022-10-19T03:34:31.954Z,78.49
2022-10-19T03:37:03.928Z,78.31
2022-10-19T03:39:36.161Z,77.97
2022-10-19T03:42:09.020Z,78.02
2022-10-19T03:44:40.923Z,78.57
2022-10-19T03:47:12.866Z,78.79
2022-10-19T03:49:44.755Z,78.51
2022-10-19T03:52:16.766Z,78.59
2022-10-19T03:54:50.978Z,78.59
2022-10-19T03:57:23.116Z,78.63
2022-10-19T03:59:54.991Z,79.04
2022-10-19T04:02:27.007Z,79.08
2022-10-19T04:04:58.866Z,79.09
2022-10-19T04:07:30.961Z,79.05
2022-10-19T04:10:02.966Z,79.05
2022-10-19T04:12:35.791Z,79.16
2022-10-19T04:15:08.995Z,79.30
2022-10-19T04:17:41.217Z,79.13
2022-10-19T04:20:14.340Z,79.48
2022-10-19T04:22:46.278Z,79.85
2022-10-19T04:25:18.510Z,79.17
2022-10-19T04:27:50.682Z,78.81
2022-10-19T04:30:22.690Z,78.54
2022-10-19T04:32:54.863Z,78.07
2022-10-19T04:35:27.180Z,78.48
2022-10-19T04:37:59.598Z,78.74
2022-10-19T04:40:31.679Z,78.77
2022-10-19T04:43:03.699Z,79.01
2022-10-19T04:45:37.596Z,78.81
2022-10-19T04:48:09.784Z,78.81
2022-10-19T04:50:41.728Z,78.83
2022-10-19T04:53:13.769Z,78.52
2022-10-19T04:55:45.955Z,78.72
2022-10-19T04:58:18.216Z,79.21
2022-10-19T05:00:50.382Z,79.08
2022-10-19T05:03:22.330Z,78.47
2022-10-19T05:05:54.192Z,78.47
2022-10-19T05:08:26.343Z,78.19
2022-10-19T05:11:01.224Z,78.17
2022-10-19T05:13:34.203Z,78.35
2022-10-19T05:16:08.251Z,78.34
2022-10-19T05:18:40.402Z,77.89
2022-10-19T05:21:14.162Z,77.72
2022-10-19T05:23:46.496Z,77.91
2022-10-19T05:26:20.431Z,77.56
2022-10-19T05:28:56.565Z,77.83
2022-10-19T05:31:30.649Z,77.67
2022-10-19T05:34:04.551Z,77.72
2022-10-19T05:36:38.896Z,78.26
2022-10-19T05:39:14.342Z,77.27
2022-10-19T05:41:47.764Z,77.06
2022-10-19T05:44:22.661Z,76.82
2022-10-19T05:46:54.838Z,77.79
2022-10-19T05:49:27.570Z,77.93
2022-10-19T05:51:59.561Z,78.47
2022-10-19T05:54:32.074Z,78.27
2022-10-19T05:57:04.250Z,78.39
2022-10-19T05:59:36.769Z,77.67
2022-10-19T06:02:14.144Z,77.62
2022-10-19T06:04:46.076Z,77.88
2022-10-19T06:07:17.970Z,77.21
2022-10-19T06:09:50.108Z,76.96
2022-10-19T06:12:24.970Z,76.81
2022-10-19T06:14:57.232Z,77.32
2022-10-19T06:17:30.929Z,77.75
2022-10-19T06:20:02.951Z,78.24
2022-10-19T06:22:34.880Z,78.41
2022-10-19T06:25:07.983Z,78.84
2022-10-19T06:27:40.162Z,78.69
2022-10-19T06:30:13.696Z,78.54
2022-10-19T06:32:46.214Z,77.84
2022-10-19T06:35:18.422Z,78.04
2022-10-19T06:37:50.796Z,77.37
2022-10-19T06:40:23.023Z,77.46
2022-10-19T06:42:55.729Z,77.53
2022-10-19T06:45:31.115Z,77.76
2022-10-19T06:48:07.666Z,77.83
2022-10-19T06:50:40.122Z,77.74
2022-10-19T06:53:12.118Z,78.44
2022-10-19T06:55:44.229Z,77.78
2022-10-19T06:58:16.233Z,77.32
2022-10-19T07:00:57.231Z,77.49
2022-10-19T07:03:30.850Z,77.89
2022-10-19T07:06:05.769Z,78.22
2022-10-19T07:08:36.968Z,78.02
2022-10-19T07:11:11.204Z,78.00
2022-10-19T07:13:43.241Z,77.75
2022-10-19T07:16:20.587Z,77.90
2022-10-19T07:18:54.213Z,78.42
2022-10-19T07:21:26.345Z,78.22
2022-10-19T07:23:58.258Z,78.40
2022-10-19T07:26:31.462Z,78.55
2022-10-19T07:29:04.222Z,78.51
2022-10-19T07:31:36.443Z,78.45
2022-10-19T07:34:11.332Z,79.04
2022-10-19T07:36:45.613Z,78.70
2022-10-19T07:39:18.313Z,78.21
2022-10-19T07:41:50.348Z,77.99
2022-10-19T07:44:22.656Z,78.07
2022-10-19T07:46:54.858Z,78.07
2022-10-19T07:49:26.982Z,77.92
2022-10-19T07:51:59.184Z,78.03
2022-10-19T07:54:31.447Z,78.28
2022-10-19T07:57:03.922Z,78.25
2022-10-19T07:59:36.880Z,78.11
2022-10-19T08:02:15.003Z,78.70
2022-10-19T08:05:07.366Z,78.46
2022-10-19T08:07:39.710Z,78.30
2022-10-19T08:10:12.593Z,77.98
2022-10-19T08:12:44.562Z,77.23
2022-10-19T08:15:16.796Z,76.84
2022-10-19T08:17:48.678Z,76.78
2022-10-19T08:20:20.648Z,77.10
2022-10-19T08:22:56.442Z,77.03
2022-10-19T08:25:30.849Z,76.60
2022-10-19T08:28:03.167Z,76.68
2022-10-19T08:30:37.315Z,76.93
2022-10-19T08:33:12.525Z,77.28
2022-10-19T08:35:44.611Z,78.53
2022-10-19T08:38:16.670Z,79.54
2022-10-19T08:40:48.995Z,80.41
2022-10-19T08:43:30.603Z,81.52
2022-10-19T08:46:12.741Z,81.61
2022-10-19T08:48:46.638Z,81.68
2022-10-19T08:51:18.793Z,81.33
2022-10-19T08:53:56.878Z,81.42
2022-10-19T08:56:49.990Z,80.97
2022-10-19T08:59:34.834Z,80.10
2022-10-19T09:02:16.014Z,79.84
2022-10-19T09:04:55.074Z,79.48
2022-10-19T09:07:30.430Z,79.75
2022-10-19T09:10:05.926Z,80.14
2022-10-19T09:12:46.656Z,79.24
2022-10-19T09:15:23.234Z,79.49
2022-10-19T09:17:55.068Z,79.12
2022-10-19T09:20:33.410Z,78.12
2022-10-19T09:23:13.518Z,77.88
2022-10-19T09:25:45.569Z,77.97
2022-10-19T09:28:36.622Z,78.28
2022-10-19T09:31:18.187Z,77.72
2022-10-19T09:33:55.654Z,77.05
2022-10-19T09:36:50.363Z,76.79
2022-10-19T09:39:25.695Z,76.57
2022-10-19T09:42:19.708Z,76.01
2022-10-19T09:44:53.215Z,75.43
2022-10-19T09:47:33.674Z,75.95
2022-10-19T09:50:19.159Z,75.82
2022-10-19T09:52:50.059Z,75.34
2022-10-19T09:55:29.619Z,74.75
2022-10-19T09:58:07.510Z,75.00
2022-10-19T10:00:42.557Z,73.40
2022-10-19T10:03:27.145Z,73.42
2022-10-19T10:06:03.322Z,73.31
2022-10-19T10:08:38.948Z,73.51
2022-10-19T10:11:14.357Z,73.18
2022-10-19T10:13:51.760Z,72.68
2022-10-19T10:16:26.983Z,72.05
2022-10-19T10:19:00.825Z,71.18
2022-10-19T10:21:36.516Z,71.47
2022-10-19T10:24:19.777Z,71.08
2022-10-19T10:26:54.674Z,70.98
2022-10-19T10:29:29.024Z,71.31
2022-10-19T10:32:05.333Z,71.69
2022-10-19T10:34:58.361Z,71.89
2022-10-19T10:37:40.117Z,72.06
2022-10-19T10:40:23.813Z,71.28
2022-10-19T10:43:03.052Z,71.48
2022-10-19T10:45:43.626Z,72.08
2022-10-19T10:48:28.285Z,72.53
2022-10-19T10:51:01.886Z,72.72
2022-10-19T10:53:39.882Z,72.80
2022-10-19T10:56:27.301Z,73.67
2022-10-19T10:59:04.105Z,73.28
2022-10-19T11:01:42.253Z,73.45
2022-10-19T11:04:20.068Z,74.55
2022-10-19T11:06:59.049Z,75.71
2022-10-19T11:09:36.892Z,76.53
2022-10-19T11:12:14.988Z,76.97
2022-10-19T11:14:50.842Z,77.68
2022-10-19T11:17:26.990Z,78.08
2022-10-19T11:19:59.540Z,78.81
2022-10-19T11:22:39.467Z,79.11
2022-10-19T11:25:27.748Z,79.39
2022-10-19T11:28:22.688Z,80.26
2022-10-19T11:31:03.544Z,79.92
2022-10-19T11:33:49.861Z,79.41
2022-10-19T11:36:40.246Z,79.32
2022-10-19T11:39:37.128Z,79.03
2022-10-19T11:42:20.134Z,78.78
2022-10-19T11:45:04.544Z,78.54
2022-10-19T11:47:56.472Z,78.01
2022-10-19T11:50:46.600Z,77.71
2022-10-19T11:53:37.828Z,76.91
2022-10-19T11:56:14.751Z,76.97
2022-10-19T11:58:58.184Z,77.03
2022-10-19T12:01:47.710Z,75.93
2022-10-19T12:04:35.604Z,76.12
2022-10-19T12:07:21.240Z,74.88
2022-10-19T12:10:04.642Z,74.65
2022-10-19T12:12:40.066Z,74.91
2022-10-19T12:15:30.738Z,75.16
2022-10-19T12:18:11.880Z,75.11
2022-10-19T12:20:50.205Z,74.91
2022-10-19T12:23:29.843Z,74.44
2022-10-19T12:26:04.868Z,73.98
2022-10-19T12:28:40.175Z,73.67
2022-10-19T12:31:13.898Z,72.88
2022-10-19T12:33:50.809Z,72.36
2022-10-19T12:36:33.205Z,70.52
2022-10-19T12:39:13.453Z,69.50
2022-10-19T12:41:53.876Z,70.54
2022-10-19T12:45:05.996Z,69.38
2022-10-19T12:47:38.119Z,69.71
2022-10-19T12:50:10.900Z,69.71
2022-10-19T12:52:46.034Z,70.01
2022-10-19T12:55:34.738Z,70.04
2022-10-19T12:58:20.530Z,69.70
2022-10-19T13:01:02.674Z,69.52
2022-10-19T13:03:38.015Z,69.42
2022-10-19T13:06:14.765Z,69.88
2022-10-19T13:08:56.558Z,70.37
2022-10-19T13:11:28.976Z,69.33
2022-10-19T13:14:04.146Z,69.57
2022-10-19T13:16:43.240Z,69.83
2022-10-19T13:19:23.168Z,69.89
2022-10-19T13:22:03.854Z,69.91
2022-10-19T13:24:38.006Z,69.38
2022-10-19T13:27:37.409Z,68.11
2022-10-19T13:30:52.983Z,68.66
2022-10-19T13:33:55.446Z,68.61
2022-10-19T13:36:28.325Z,67.59
2022-10-19T13:39:16.962Z,67.89
2022-10-19T13:41:53.045Z,67.55
2022-10-19T13:44:29.004Z,66.63
2022-10-19T13:47:31.588Z,67.70
2022-10-19T13:50:32.423Z,66.46
2022-10-19T13:53:33.444Z,65.51
2022-10-19T13:56:33.834Z,65.44
2022-10-19T13:59:53.832Z,65.43
2022-10-19T14:02:59.158Z,63.45
2022-10-19T14:05:48.521Z,62.74
2022-10-19T14:08:57.572Z,62.06
2022-10-19T14:11:32.878Z,62.46
2022-10-19T14:14:16.225Z,62.40
2022-10-19T14:17:04.138Z,62.44
2022-10-19T14:19:47.219Z,62.89
2022-10-19T14:22:30.260Z,62.95
2022-10-19T14:25:08.691Z,63.70
2022-10-19T14:27:41.186Z,64.03
2022-10-19T14:30:25.867Z,63.53
2022-10-19T14:33:02.188Z,63.54
2022-10-19T14:35:37.709Z,63.92
2022-10-19T14:38:16.800Z,64.48
2022-10-19T14:40:48.845Z,63.32
2022-10-19T14:43:24.648Z,62.93
2022-10-19T14:46:22.760Z,62.50
2022-10-19T14:49:02.861Z,61.57
2022-10-19T14:51:41.816Z,60.98
2022-10-19T14:54:21.965Z,61.28
2022-10-19T14:56:57.232Z,61.05
2022-10-19T14:59:33.101Z,61.37
2022-10-19T15:02:12.946Z,61.40
2022-10-19T15:04:45.367Z,61.25
2022-10-19T15:07:25.160Z,60.67
2022-10-19T15:10:00.065Z,61.79
2022-10-19T15:12:38.473Z,61.82
2022-10-19T15:15:18.282Z,60.75
2022-10-19T15:17:56.033Z,60.21
2022-10-19T15:20:36.377Z,60.27
2022-10-19T15:23:34.241Z,60.48
2022-10-19T15:26:17.602Z,60.76
2022-10-19T15:28:50.767Z,61.30
2022-10-19T15:31:26.533Z,61.89
2022-10-19T15:34:05.388Z,61.64
2022-10-19T15:36:37.438Z,62.07
2022-10-19T15:39:33.019Z,61.43
2022-10-19T15:42:37.548Z,60.81
2022-10-19T15:45:33.502Z,60.96
2022-10-19T15:48:49.940Z,61.25
2022-10-19T15:51:52.452Z,61.30
2022-10-19T15:54:24.697Z,61.06
2022-10-19T15:56:57.455Z,61.69
2022-10-19T15:59:29.424Z,61.01
2022-10-19T16:02:01.548Z,61.27
2022-10-19T16:04:33.612Z,60.82
2022-10-19T16:07:05.641Z,61.61
2022-10-19T16:09:37.527Z,61.19
2022-10-19T16:12:10.258Z,61.00
2022-10-19T16:14:43.490Z,60.26
2022-10-19T16:17:16.627Z,60.95
2022-10-19T16:19:49.044Z,61.42
2022-10-19T16:22:21.379Z,60.89
2022-10-19T16:24:53.891Z,60.55
2022-10-19T16:27:26.645Z,60.88
2022-10-19T16:29:58.904Z,60.68
2022-10-19T16:32:32.334Z,60.77
2022-10-19T16:35:04.717Z,61.08
2022-10-19T16:37:37.173Z,61.11
2022-10-19T16:40:11.605Z,60.91
2022-10-19T16:42:43.551Z,60.65
2022-10-19T16:45:15.678Z,60.85
2022-10-19T16:47:52.144Z,61.07
2022-10-19T16:50:25.137Z,61.19
2022-10-19T16:53:10.786Z,61.54
2022-10-19T16:55:44.556Z,61.77
2022-10-19T16:58:16.543Z,62.44
2022-10-19T17:00:49.054Z,62.52
2022-10-19T17:03:21.219Z,62.03
2022-10-19T17:05:53.656Z,62.01
2022-10-19T17:08:36.769Z,61.65
2022-10-19T17:11:18.179Z,61.56
2022-10-19T17:13:52.349Z,61.24
2022-10-19T17:16:25.427Z,61.82
2022-10-19T17:18:59.498Z,62.19
2022-10-19T17:21:34.537Z,62.05
2022-10-19T17:24:08.139Z,62.17
2022-10-19T17:26:43.225Z,62.08
2022-10-19T17:29:15.644Z,61.97
2022-10-19T17:31:48.046Z,62.14
2022-10-19T17:34:20.232Z,62.44
2022-10-19T17:36:52.324Z,62.52
2022-10-19T17:39:29.109Z,62.70
2022-10-19T17:42:03.363Z,62.13
2022-10-19T17:44:35.518Z,61.73
2022-10-19T17:47:07.547Z,61.89
2022-10-19T17:49:41.134Z,61.87
2022-10-19T17:52:13.203Z,62.41
2022-10-19T17:54:54.751Z,62.02
2022-10-19T17:57:38.809Z,62.23
2022-10-19T18:00:12.573Z,62.65
2022-10-19T18:02:46.819Z,63.19
2022-10-19T18:05:19.084Z,62.85
2022-10-19T18:07:51.562Z,63.07
2022-10-19T18:10:23.713Z,62.71
2022-10-19T18:12:55.693Z,62.34
2022-10-19T18:15:27.537Z,62.23
2022-10-19T18:18:01.134Z,62.98
2022-10-19T18:20:33.022Z,63.41
2022-10-19T18:23:04.952Z,63.32
2022-10-19T18:25:53.332Z,63.09
2022-10-19T18:28:26.044Z,62.78
2022-10-19T18:30:58.272Z,63.11
2022-10-19T18:33:58.072Z,63.27
2022-10-19T18:36:30.898Z,63.38
2022-10-19T18:39:06.174Z,63.18
2022-10-19T18:41:38.751Z,63.26
2022-10-19T18:44:12.668Z,63.37
2022-10-19T18:46:46.356Z,63.20
2022-10-19T18:49:18.511Z,63.24
2022-10-19T18:51:55.267Z,63.17
2022-10-19T18:54:28.950Z,63.22
2022-10-19T18:57:01.035Z,63.23
2022-10-19T18:59:33.286Z,63.36
2022-10-19T19:02:07.840Z,63.48
2022-10-19T19:04:46.024Z,63.76
2022-10-19T19:07:19.491Z,63.99
2022-10-19T19:09:52.316Z,64.35
2022-10-19T19:12:25.152Z,64.48
2022-10-19T19:14:57.237Z,64.42
2022-10-19T19:17:29.131Z,63.90
2022-10-19T19:20:01.142Z,63.74
2022-10-19T19:22:33.660Z,63.52
2022-10-19T19:25:07.095Z,63.44
2022-10-19T19:30:17.539Z,63.30
2022-10-19T19:32:50.644Z,63.35
2022-10-19T19:35:22.683Z,63.90
2022-10-19T19:37:55.397Z,63.85
2022-10-19T19:40:29.479Z,63.55
2022-10-19T19:43:03.542Z,63.41
2022-10-19T19:45:36.166Z,63.49
2022-10-19T19:48:11.616Z,63.62
2022-10-19T19:50:49.944Z,63.57
2022-10-19T19:53:22.401Z,63.30
2022-10-19T19:55:54.843Z,63.18
2022-10-19T19:58:27.979Z,63.30
2022-10-19T20:01:00.349Z,62.97
2022-10-19T20:03:33.405Z,62.48
2022-10-19T20:06:05.699Z,62.63
2022-10-19T20:08:38.159Z,62.93
2022-10-19T20:11:12.324Z,62.82
2022-10-19T20:13:44.305Z,63.15
2022-10-19T20:16:19.823Z,63.49
2022-10-19T20:18:57.840Z,63.71
2022-10-19T20:21:32.493Z,63.64
2022-10-19T20:24:07.609Z,63.70
2022-10-19T20:26:40.583Z,63.57
2022-10-19T20:29:13.146Z,63.70
2022-10-19T20:31:45.306Z,63.82
2022-10-19T20:34:23.109Z,64.02
2022-10-19T20:36:58.253Z,63.96
2022-10-19T20:39:33.254Z,63.80
2022-10-19T20:42:11.015Z,63.47
2022-10-19T20:44:44.133Z,63.43
2022-10-19T20:47:16.434Z,63.56
2022-10-19T20:49:50.669Z,63.77
2022-10-19T20:52:24.073Z,64.01
2022-10-19T20:54:56.056Z,64.30
2022-10-19T20:57:27.958Z,64.34
2022-10-19T21:00:00.038Z,64.36
2022-10-19T21:02:32.319Z,64.26
2022-10-19T21:05:04.572Z,64.01
2022-10-19T21:07:36.680Z,63.59
2022-10-19T21:10:09.831Z,63.08
2022-10-19T21:12:41.711Z,63.30
2022-10-19T21:15:14.052Z,63.13
2022-10-19T21:17:48.011Z,62.82
2022-10-19T21:20:20.421Z,62.60
2022-10-19T21:22:52.335Z,62.89
2022-10-19T21:25:24.491Z,63.52
2022-10-19T21:27:56.815Z,63.63
2022-10-19T21:30:28.838Z,63.79
2022-10-19T21:33:01.014Z,63.78
2022-10-19T21:35:32.989Z,63.29
2022-10-19T21:38:05.038Z,63.30
2022-10-19T21:40:38.677Z,63.36
2022-10-19T21:43:11.493Z,63.32
2022-10-19T21:45:43.273Z,63.30
2022-10-19T21:48:15.114Z,63.08
2022-10-19T21:50:46.936Z,63.24
2022-10-19T21:53:22.707Z,62.87
2022-10-19T21:55:54.996Z,62.78
2022-10-19T21:58:27.035Z,63.22
2022-10-19T22:01:06.592Z,63.04
2022-10-19T22:03:38.766Z,62.97
2022-10-19T22:06:11.313Z,62.88
2022-10-19T22:08:45.764Z,62.89
2022-10-19T22:11:18.162Z,63.07
2022-10-19T22:13:50.386Z,62.62
2022-10-19T22:16:23.031Z,62.08
2022-10-19T22:18:55.447Z,62.05
2022-10-19T22:21:30.258Z,62.01
2022-10-19T22:24:01.612Z,62.32
2022-10-19T22:26:36.499Z,62.58
2022-10-19T22:29:09.990Z,62.56
2022-10-19T22:31:42.503Z,62.80
2022-10-19T22:34:24.566Z,62.57
2022-10-19T22:37:00.148Z,62.61
2022-10-19T22:39:34.669Z,62.67
2022-10-19T22:42:53.689Z,62.93
2022-10-19T22:45:26.284Z,62.96
2022-10-19T22:47:58.369Z,63.05
2022-10-19T22:50:30.586Z,62.99
2022-10-19T22:53:02.682Z,63.19
2022-10-19T22:55:35.408Z,63.03
2022-10-19T22:58:08.567Z,62.85
2022-10-19T23:00:40.815Z,62.73
2022-10-19T23:03:13.651Z,62.54
2022-10-19T23:05:46.176Z,62.46
2022-10-19T23:08:18.696Z,62.32
2022-10-19T23:10:50.829Z,62.57
2022-10-19T23:13:23.352Z,62.55
2022-10-19T23:15:56.034Z,62.49
2022-10-19T23:18:28.545Z,62.91
2022-10-19T23:21:03.007Z,62.33
2022-10-19T23:23:36.998Z,62.08
2022-10-19T23:26:12.769Z,62.10
2022-10-19T23:28:51.065Z,62.13
2022-10-19T23:31:26.570Z,62.49
2022-10-19T23:33:59.196Z,62.76
2022-10-19T23:36:32.482Z,62.65
2022-10-19T23:39:04.953Z,62.89
2022-10-19T23:41:36.815Z,62.99
2022-10-19T23:44:10.367Z,62.77
2022-10-19T23:46:42.447Z,62.47
2022-10-19T23:49:14.477Z,62.43
2022-10-19T23:51:46.330Z,62.38
2022-10-19T23:54:18.379Z,62.50
2022-10-19T23:56:50.634Z,62.40
2022-10-19T23:59:22.747Z,62.35
